KTPA 220310Z 2203/2306 08005KT P6SM SKC
FM221500 23007KT P6SM FEW040 SCT250
FM222000 29011KT P6SM SCT050
From batch tds/tafs/production/2024/5/22/h03_m20_tafs.cache.xml.gz
Issued (24 days ago)
Forecasts
2203/2215 8005KT 6+SM SKC

---
fcst_time_to: '2024-05-22T15:00:00Z'
sky_condition:
- sky_cover: SKC
wind_speed_kt: '5'
fcst_time_from: '2024-05-22T03:00:00Z'
wind_dir_degrees: '80'
visibility_statute_mi: 6+

FM221500 23007KT 6+SM FEW4000 SCT25000

---
fcst_time_to: '2024-05-22T20:00:00Z'
sky_condition:
- - sky_cover: FEW
    cloud_base_ft_agl: '4000'
- - sky_cover: SCT
    cloud_base_ft_agl: '25000'
wind_speed_kt: '7'
fcst_time_from: '2024-05-22T15:00:00Z'
change_indicator: FM
wind_dir_degrees: '230'
visibility_statute_mi: 6+

FM222000 29011KT 6+SM SCT5000

---
fcst_time_to: '2024-05-23T06:00:00Z'
sky_condition:
- sky_cover: SCT
  cloud_base_ft_agl: '5000'
wind_speed_kt: '11'
fcst_time_from: '2024-05-22T20:00:00Z'
change_indicator: FM
wind_dir_degrees: '290'
visibility_statute_mi: 6+

talk